sensor_id;sensor_type;location;lat;lon;timestamp;P1;durP1;ratioP1;P2;durP2;ratioP2
10232;SDS011;5161;48.174;11.756;2023-04-21T00:02:13;22.90;;;19.67;;
10232;SDS011;5161;48.174;11.756;2023-04-21T00:04:40;18.83;;;16.83;;
10232;SDS011;5161;48.174;11.756;2023-04-21T00:07:05;17.73;;;15.93;;
10232;SDS011;5161;48.174;11.756;2023-04-21T00:09:32;17.73;;;15.60;;
10232;SDS011;5161;48.174;11.756;2023-04-21T00:11:57;16.27;;;14.67;;
10232;SDS011;5161;48.174;11.756;2023-04-21T00:14:23;16.40;;;14.67;;
10232;SDS011;5161;48.174;11.756;2023-04-21T00:16:49;16.60;;;14.90;;
10232;SDS011;5161;48.174;11.756;2023-04-21T00:19:17;17.17;;;15.33;;
10232;SDS011;5161;48.174;11.756;2023-04-21T00:21:43;17.40;;;15.53;;
10232;SDS011;5161;48.174;11.756;2023-04-21T00:24:09;16.37;;;14.63;;
10232;SDS011;5161;48.174;11.756;2023-04-21T00:26:35;17.70;;;14.70;;
10232;SDS011;5161;48.174;11.756;2023-04-21T00:29:01;18.43;;;15.07;;
10232;SDS011;5161;48.174;11.756;2023-04-21T00:31:27;17.30;;;15.40;;
10232;SDS011;5161;48.174;11.756;2023-04-21T00:33:52;17.97;;;15.17;;
10232;SDS011;5161;48.174;11.756;2023-04-21T00:36:19;16.97;;;15.07;;
10232;SDS011;5161;48.174;11.756;2023-04-21T00:38:45;16.63;;;14.87;;
10232;SDS011;5161;48.174;11.756;2023-04-21T00:41:10;18.77;;;15.70;;
10232;SDS011;5161;48.174;11.756;2023-04-21T00:43:36;18.37;;;15.60;;
10232;SDS011;5161;48.174;11.756;2023-04-21T00:46:01;19.13;;;15.80;;
10232;SDS011;5161;48.174;11.756;2023-04-21T00:48:27;17.80;;;15.90;;
10232;SDS011;5161;48.174;11.756;2023-04-21T00:50:53;17.33;;;15.53;;
10232;SDS011;5161;48.174;11.756;2023-04-21T00:53:18;17.87;;;15.97;;
10232;SDS011;5161;48.174;11.756;2023-04-21T00:55:45;17.83;;;15.93;;
10232;SDS011;5161;48.174;11.756;2023-04-21T00:58:11;19.53;;;16.87;;
10232;SDS011;5161;48.174;11.756;2023-04-21T01:00:37;19.23;;;17.07;;
10232;SDS011;5161;48.174;11.756;2023-04-21T01:03:03;18.03;;;16.03;;
10232;SDS011;5161;48.174;11.756;2023-04-21T01:05:30;20.20;;;17.00;;
10232;SDS011;5161;48.174;11.756;2023-04-21T01:07:56;22.07;;;18.40;;
10232;SDS011;5161;48.174;11.756;2023-04-21T01:10:21;22.80;;;17.87;;
10232;SDS011;5161;48.174;11.756;2023-04-21T01:12:47;20.47;;;18.27;;
10232;SDS011;5161;48.174;11.756;2023-04-21T01:15:13;20.23;;;17.90;;
10232;SDS011;5161;48.174;11.756;2023-04-21T01:17:41;24.73;;;18.90;;
10232;SDS011;5161;48.174;11.756;2023-04-21T01:20:08;19.80;;;17.70;;
10232;SDS011;5161;48.174;11.756;2023-04-21T01:22:36;21.93;;;18.80;;
10232;SDS011;5161;48.174;11.756;2023-04-21T01:25:03;22.50;;;19.63;;
10232;SDS011;5161;48.174;11.756;2023-04-21T01:27:29;22.27;;;18.90;;
10232;SDS011;5161;48.174;11.756;2023-04-21T01:29:55;24.00;;;20.17;;
10232;SDS011;5161;48.174;11.756;2023-04-21T01:32:22;23.80;;;19.60;;
10232;SDS011;5161;48.174;11.756;2023-04-21T01:34:51;22.03;;;19.37;;
10232;SDS011;5161;48.174;11.756;2023-04-21T01:37:20;22.10;;;19.70;;
10232;SDS011;5161;48.174;11.756;2023-04-21T01:39:48;24.13;;;20.33;;
10232;SDS011;5161;48.174;11.756;2023-04-21T01:42:19;22.60;;;19.30;;
10232;SDS011;5161;48.174;11.756;2023-04-21T01:44:46;21.40;;;18.87;;
10232;SDS011;5161;48.174;11.756;2023-04-21T01:47:14;21.90;;;19.10;;
10232;SDS011;5161;48.174;11.756;2023-04-21T01:49:41;23.57;;;19.60;;
10232;SDS011;5161;48.174;11.756;2023-04-21T01:52:06;23.97;;;20.00;;
10232;SDS011;5161;48.174;11.756;2023-04-21T01:54:32;24.27;;;19.80;;
10232;SDS011;5161;48.174;11.756;2023-04-21T01:56:58;23.00;;;20.10;;
10232;SDS011;5161;48.174;11.756;2023-04-21T01:59:24;23.20;;;19.90;;
10232;SDS011;5161;48.174;11.756;2023-04-21T02:01:50;24.63;;;20.13;;
10232;SDS011;5161;48.174;11.756;2023-04-21T02:04:15;22.83;;;19.73;;
10232;SDS011;5161;48.174;11.756;2023-04-21T02:06:41;25.20;;;20.47;;
10232;SDS011;5161;48.174;11.756;2023-04-21T02:09:06;25.47;;;20.23;;
10232;SDS011;5161;48.174;11.756;2023-04-21T02:11:32;25.00;;;20.13;;
10232;SDS011;5161;48.174;11.756;2023-04-21T02:13:57;24.50;;;20.60;;
10232;SDS011;5161;48.174;11.756;2023-04-21T02:16:23;23.50;;;20.37;;
10232;SDS011;5161;48.174;11.756;2023-04-21T02:18:52;23.60;;;20.17;;
10232;SDS011;5161;48.174;11.756;2023-04-21T02:21:18;23.07;;;19.93;;
10232;SDS011;5161;48.174;11.756;2023-04-21T02:23:45;24.03;;;20.37;;
10232;SDS011;5161;48.174;11.756;2023-04-21T02:26:11;23.90;;;20.10;;
10232;SDS011;5161;48.174;11.756;2023-04-21T02:28:36;24.53;;;19.90;;
10232;SDS011;5161;48.174;11.756;2023-04-21T02:31:02;23.87;;;20.17;;
10232;SDS011;5161;48.174;11.756;2023-04-21T02:33:28;26.93;;;20.77;;
10232;SDS011;5161;48.174;11.756;2023-04-21T02:35:54;25.23;;;20.77;;
10232;SDS011;5161;48.174;11.756;2023-04-21T02:38:19;26.50;;;20.43;;
10232;SDS011;5161;48.174;11.756;2023-04-21T02:40:45;24.23;;;20.37;;
10232;SDS011;5161;48.174;11.756;2023-04-21T02:43:12;25.67;;;21.60;;
10232;SDS011;5161;48.174;11.756;2023-04-21T02:45:38;25.10;;;20.93;;
10232;SDS011;5161;48.174;11.756;2023-04-21T02:48:03;26.00;;;21.13;;
10232;SDS011;5161;48.174;11.756;2023-04-21T02:50:29;28.97;;;22.17;;
10232;SDS011;5161;48.174;11.756;2023-04-21T02:52:55;27.40;;;21.17;;
10232;SDS011;5161;48.174;11.756;2023-04-21T02:55:20;26.20;;;21.23;;
10232;SDS011;5161;48.174;11.756;2023-04-21T02:57:46;24.90;;;21.13;;
10232;SDS011;5161;48.174;11.756;2023-04-21T03:00:12;25.03;;;21.23;;
10232;SDS011;5161;48.174;11.756;2023-04-21T03:02:38;25.93;;;22.00;;
10232;SDS011;5161;48.174;11.756;2023-04-21T03:05:04;26.43;;;20.90;;
10232;SDS011;5161;48.174;11.756;2023-04-21T03:07:30;27.60;;;21.60;;
10232;SDS011;5161;48.174;11.756;2023-04-21T03:09:56;26.93;;;21.80;;
10232;SDS011;5161;48.174;11.756;2023-04-21T03:12:22;26.73;;;21.47;;
10232;SDS011;5161;48.174;11.756;2023-04-21T03:14:47;28.63;;;22.70;;
10232;SDS011;5161;48.174;11.756;2023-04-21T03:17:13;26.93;;;22.47;;
10232;SDS011;5161;48.174;11.756;2023-04-21T03:19:38;27.30;;;22.40;;
10232;SDS011;5161;48.174;11.756;2023-04-21T03:22:04;26.33;;;22.27;;
10232;SDS011;5161;48.174;11.756;2023-04-21T03:24:30;29.53;;;22.27;;
10232;SDS011;5161;48.174;11.756;2023-04-21T03:26:56;25.97;;;22.20;;
10232;SDS011;5161;48.174;11.756;2023-04-21T03:29:21;30.03;;;22.53;;
10232;SDS011;5161;48.174;11.756;2023-04-21T03:31:47;26.87;;;22.27;;
10232;SDS011;5161;48.174;11.756;2023-04-21T03:34:13;26.70;;;22.13;;
10232;SDS011;5161;48.174;11.756;2023-04-21T03:36:39;26.63;;;22.57;;
10232;SDS011;5161;48.174;11.756;2023-04-21T03:39:04;25.67;;;21.63;;
10232;SDS011;5161;48.174;11.756;2023-04-21T03:41:32;26.30;;;22.27;;
10232;SDS011;5161;48.174;11.756;2023-04-21T03:43:58;23.17;;;20.47;;
10232;SDS011;5161;48.174;11.756;2023-04-21T03:46:23;25.57;;;21.90;;
10232;SDS011;5161;48.174;11.756;2023-04-21T03:48:49;24.83;;;21.17;;
10232;SDS011;5161;48.174;11.756;2023-04-21T03:51:18;25.73;;;20.73;;
10232;SDS011;5161;48.174;11.756;2023-04-21T03:53:51;25.77;;;21.80;;
10232;SDS011;5161;48.174;11.756;2023-04-21T03:56:17;26.13;;;22.17;;
10232;SDS011;5161;48.174;11.756;2023-04-21T03:58:42;26.53;;;21.97;;
10232;SDS011;5161;48.174;11.756;2023-04-21T04:01:10;25.17;;;21.17;;
10232;SDS011;5161;48.174;11.756;2023-04-21T04:03:36;23.50;;;20.67;;
10232;SDS011;5161;48.174;11.756;2023-04-21T04:06:05;22.00;;;19.63;;
10232;SDS011;5161;48.174;11.756;2023-04-21T04:08:30;23.80;;;19.47;;
10232;SDS011;5161;48.174;11.756;2023-04-21T04:10:56;23.17;;;19.63;;
10232;SDS011;5161;48.174;11.756;2023-04-21T04:13:22;22.70;;;19.30;;
10232;SDS011;5161;48.174;11.756;2023-04-21T04:15:51;23.17;;;19.67;;
10232;SDS011;5161;48.174;11.756;2023-04-21T04:18:17;22.60;;;19.70;;
10232;SDS011;5161;48.174;11.756;2023-04-21T04:24:09;24.03;;;20.20;;
10232;SDS011;5161;48.174;11.756;2023-04-21T04:26:55;24.47;;;20.20;;
10232;SDS011;5161;48.174;11.756;2023-04-21T04:32:22;22.73;;;19.73;;
10232;SDS011;5161;48.174;11.756;2023-04-21T04:34:57;25.33;;;19.87;;
10232;SDS011;5161;48.174;11.756;2023-04-21T04:37:24;22.73;;;19.57;;
10232;SDS011;5161;48.174;11.756;2023-04-21T04:39:53;27.37;;;19.40;;
10232;SDS011;5161;48.174;11.756;2023-04-21T04:42:19;22.43;;;19.47;;
10232;SDS011;5161;48.174;11.756;2023-04-21T04:44:45;22.23;;;18.97;;
10232;SDS011;5161;48.174;11.756;2023-04-21T04:47:11;23.43;;;19.53;;
10232;SDS011;5161;48.174;11.756;2023-04-21T04:49:37;22.27;;;18.77;;
10232;SDS011;5161;48.174;11.756;2023-04-21T04:52:03;22.10;;;19.57;;
10232;SDS011;5161;48.174;11.756;2023-04-21T04:54:28;21.30;;;18.90;;
10232;SDS011;5161;48.174;11.756;2023-04-21T04:56:54;21.47;;;18.90;;
10232;SDS011;5161;48.174;11.756;2023-04-21T04:59:21;24.60;;;19.20;;
10232;SDS011;5161;48.174;11.756;2023-04-21T05:01:47;25.73;;;19.23;;
10232;SDS011;5161;48.174;11.756;2023-04-21T05:04:12;22.43;;;19.07;;
10232;SDS011;5161;48.174;11.756;2023-04-21T05:06:41;22.40;;;19.07;;
10232;SDS011;5161;48.174;11.756;2023-04-21T05:09:07;23.03;;;18.97;;
10232;SDS011;5161;48.174;11.756;2023-04-21T05:11:34;21.77;;;18.97;;
10232;SDS011;5161;48.174;11.756;2023-04-21T05:13:59;22.17;;;18.20;;
10232;SDS011;5161;48.174;11.756;2023-04-21T05:16:25;20.03;;;17.83;;
10232;SDS011;5161;48.174;11.756;2023-04-21T05:18:50;21.13;;;18.30;;
10232;SDS011;5161;48.174;11.756;2023-04-21T05:21:21;21.37;;;18.37;;
10232;SDS011;5161;48.174;11.756;2023-04-21T05:23:48;21.33;;;18.57;;
10232;SDS011;5161;48.174;11.756;2023-04-21T05:26:14;21.83;;;18.73;;
10232;SDS011;5161;48.174;11.756;2023-04-21T05:28:40;18.87;;;16.50;;
10232;SDS011;5161;48.174;11.756;2023-04-21T05:31:06;24.20;;;18.80;;
10232;SDS011;5161;48.174;11.756;2023-04-21T05:33:31;22.80;;;18.27;;
10232;SDS011;5161;48.174;11.756;2023-04-21T05:35:57;22.20;;;19.27;;
10232;SDS011;5161;48.174;11.756;2023-04-21T05:38:22;23.73;;;19.60;;
10232;SDS011;5161;48.174;11.756;2023-04-21T05:40:51;23.23;;;19.90;;
10232;SDS011;5161;48.174;11.756;2023-04-21T05:43:20;22.23;;;19.83;;
10232;SDS011;5161;48.174;11.756;2023-04-21T05:45:47;24.60;;;20.20;;
10232;SDS011;5161;48.174;11.756;2023-04-21T05:48:12;23.77;;;19.67;;
10232;SDS011;5161;48.174;11.756;2023-04-21T05:50:38;23.30;;;20.23;;
10232;SDS011;5161;48.174;11.756;2023-04-21T05:53:04;26.17;;;20.53;;
10232;SDS011;5161;48.174;11.756;2023-04-21T05:55:29;25.63;;;20.50;;
10232;SDS011;5161;48.174;11.756;2023-04-21T05:57:55;26.23;;;20.30;;
10232;SDS011;5161;48.174;11.756;2023-04-21T06:00:20;22.43;;;19.20;;
10232;SDS011;5161;48.174;11.756;2023-04-21T06:02:46;21.67;;;18.43;;
10232;SDS011;5161;48.174;11.756;2023-04-21T06:05:12;23.73;;;20.50;;
10232;SDS011;5161;48.174;11.756;2023-04-21T06:07:37;22.73;;;20.00;;
10232;SDS011;5161;48.174;11.756;2023-04-21T06:10:03;23.00;;;20.10;;
10232;SDS011;5161;48.174;11.756;2023-04-21T06:12:29;25.33;;;20.87;;
10232;SDS011;5161;48.174;11.756;2023-04-21T06:14:54;24.10;;;19.90;;
10232;SDS011;5161;48.174;11.756;2023-04-21T06:17:22;23.23;;;20.13;;
10232;SDS011;5161;48.174;11.756;2023-04-21T06:19:48;23.40;;;20.30;;
10232;SDS011;5161;48.174;11.756;2023-04-21T06:22:20;23.43;;;19.87;;
10232;SDS011;5161;48.174;11.756;2023-04-21T06:24:46;23.63;;;20.10;;
10232;SDS011;5161;48.174;11.756;2023-04-21T06:27:12;22.00;;;19.07;;
10232;SDS011;5161;48.174;11.756;2023-04-21T06:29:38;23.93;;;19.07;;
10232;SDS011;5161;48.174;11.756;2023-04-21T06:32:04;22.70;;;19.73;;
10232;SDS011;5161;48.174;11.756;2023-04-21T06:34:29;23.33;;;19.57;;
10232;SDS011;5161;48.174;11.756;2023-04-21T06:36:55;20.73;;;18.53;;
10232;SDS011;5161;48.174;11.756;2023-04-21T06:39:21;20.73;;;18.53;;
10232;SDS011;5161;48.174;11.756;2023-04-21T06:41:46;23.23;;;19.57;;
10232;SDS011;5161;48.174;11.756;2023-04-21T06:44:12;22.10;;;19.33;;
10232;SDS011;5161;48.174;11.756;2023-04-21T06:46:39;21.60;;;19.30;;
10232;SDS011;5161;48.174;11.756;2023-04-21T06:49:06;24.30;;;20.03;;
10232;SDS011;5161;48.174;11.756;2023-04-21T06:51:32;22.90;;;20.23;;
10232;SDS011;5161;48.174;11.756;2023-04-21T06:53:58;24.47;;;21.00;;
10232;SDS011;5161;48.174;11.756;2023-04-21T06:56:25;23.57;;;20.47;;
10232;SDS011;5161;48.174;11.756;2023-04-21T06:58:51;23.23;;;20.70;;
10232;SDS011;5161;48.174;11.756;2023-04-21T07:01:17;28.87;;;21.43;;
10232;SDS011;5161;48.174;11.756;2023-04-21T07:03:43;24.20;;;20.77;;
10232;SDS011;5161;48.174;11.756;2023-04-21T07:06:09;22.97;;;19.90;;
10232;SDS011;5161;48.174;11.756;2023-04-21T07:08:35;24.23;;;19.90;;
10232;SDS011;5161;48.174;11.756;2023-04-21T07:11:01;22.83;;;19.00;;
10232;SDS011;5161;48.174;11.756;2023-04-21T07:13:26;23.47;;;19.37;;
10232;SDS011;5161;48.174;11.756;2023-04-21T07:15:52;26.67;;;20.17;;
10232;SDS011;5161;48.174;11.756;2023-04-21T07:18:18;22.57;;;19.67;;
10232;SDS011;5161;48.174;11.756;2023-04-21T07:20:47;23.67;;;19.70;;
10232;SDS011;5161;48.174;11.756;2023-04-21T07:23:12;22.90;;;19.33;;
10232;SDS011;5161;48.174;11.756;2023-04-21T07:25:38;22.27;;;19.80;;
10232;SDS011;5161;48.174;11.756;2023-04-21T07:28:04;21.73;;;19.00;;
10232;SDS011;5161;48.174;11.756;2023-04-21T07:30:30;22.47;;;19.77;;
10232;SDS011;5161;48.174;11.756;2023-04-21T07:32:56;22.83;;;19.57;;
10232;SDS011;5161;48.174;11.756;2023-04-21T07:35:22;21.27;;;18.73;;
10232;SDS011;5161;48.174;11.756;2023-04-21T07:37:48;21.23;;;18.43;;
10232;SDS011;5161;48.174;11.756;2023-04-21T07:40:14;20.37;;;17.93;;
10232;SDS011;5161;48.174;11.756;2023-04-21T07:42:39;21.20;;;18.30;;
10232;SDS011;5161;48.174;11.756;2023-04-21T07:45:07;20.50;;;18.07;;
10232;SDS011;5161;48.174;11.756;2023-04-21T07:47:33;20.37;;;18.23;;
10232;SDS011;5161;48.174;11.756;2023-04-21T07:49:59;21.90;;;18.93;;
10232;SDS011;5161;48.174;11.756;2023-04-21T07:52:25;21.20;;;18.90;;
10232;SDS011;5161;48.174;11.756;2023-04-21T07:54:50;22.40;;;19.33;;
10232;SDS011;5161;48.174;11.756;2023-04-21T07:57:16;21.60;;;18.77;;
10232;SDS011;5161;48.174;11.756;2023-04-21T07:59:42;19.97;;;17.87;;
10232;SDS011;5161;48.174;11.756;2023-04-21T08:02:08;21.37;;;18.37;;
10232;SDS011;5161;48.174;11.756;2023-04-21T08:04:33;23.00;;;17.90;;
10232;SDS011;5161;48.174;11.756;2023-04-21T08:06:59;22.23;;;18.97;;
10232;SDS011;5161;48.174;11.756;2023-04-21T08:09:27;21.30;;;18.37;;
10232;SDS011;5161;48.174;11.756;2023-04-21T08:11:53;21.30;;;18.20;;
10232;SDS011;5161;48.174;11.756;2023-04-21T08:14:19;23.47;;;18.77;;
10232;SDS011;5161;48.174;11.756;2023-04-21T08:16:50;20.37;;;18.20;;
10232;SDS011;5161;48.174;11.756;2023-04-21T08:19:17;24.77;;;19.03;;
10232;SDS011;5161;48.174;11.756;2023-04-21T08:21:43;20.37;;;17.73;;
10232;SDS011;5161;48.174;11.756;2023-04-21T08:24:08;20.30;;;18.03;;
10232;SDS011;5161;48.174;11.756;2023-04-21T08:26:34;22.70;;;18.53;;
10232;SDS011;5161;48.174;11.756;2023-04-21T08:29:07;21.10;;;18.37;;
10232;SDS011;5161;48.174;11.756;2023-04-21T08:31:34;20.77;;;17.77;;
10232;SDS011;5161;48.174;11.756;2023-04-21T08:34:00;21.57;;;18.00;;
10232;SDS011;5161;48.174;11.756;2023-04-21T08:36:29;20.23;;;18.03;;
10232;SDS011;5161;48.174;11.756;2023-04-21T08:38:55;23.83;;;19.60;;
10232;SDS011;5161;48.174;11.756;2023-04-21T08:41:21;24.40;;;19.27;;
10232;SDS011;5161;48.174;11.756;2023-04-21T08:43:48;23.57;;;20.30;;
10232;SDS011;5161;48.174;11.756;2023-04-21T08:46:17;21.47;;;17.83;;
10232;SDS011;5161;48.174;11.756;2023-04-21T08:48:51;18.80;;;16.80;;
10232;SDS011;5161;48.174;11.756;2023-04-21T08:51:37;18.23;;;16.27;;
10232;SDS011;5161;48.174;11.756;2023-04-21T08:54:04;19.77;;;17.23;;
10232;SDS011;5161;48.174;11.756;2023-04-21T08:56:30;19.83;;;16.87;;
10232;SDS011;5161;48.174;11.756;2023-04-21T08:58:57;18.73;;;16.50;;
10232;SDS011;5161;48.174;11.756;2023-04-21T09:01:22;17.80;;;15.73;;
10232;SDS011;5161;48.174;11.756;2023-04-21T09:03:48;20.17;;;17.07;;
10232;SDS011;5161;48.174;11.756;2023-04-21T09:06:14;21.20;;;17.90;;
10232;SDS011;5161;48.174;11.756;2023-04-21T09:08:41;20.83;;;17.23;;
10232;SDS011;5161;48.174;11.756;2023-04-21T09:11:07;24.23;;;19.63;;
10232;SDS011;5161;48.174;11.756;2023-04-21T09:13:38;20.80;;;18.43;;
10232;SDS011;5161;48.174;11.756;2023-04-21T09:16:15;21.33;;;18.00;;
10232;SDS011;5161;48.174;11.756;2023-04-21T09:18:45;19.73;;;17.03;;
10232;SDS011;5161;48.174;11.756;2023-04-21T09:21:13;18.83;;;16.83;;
10232;SDS011;5161;48.174;11.756;2023-04-21T09:26:05;19.00;;;16.97;;
10232;SDS011;5161;48.174;11.756;2023-04-21T09:28:31;22.33;;;17.83;;
10232;SDS011;5161;48.174;11.756;2023-04-21T09:30:58;19.93;;;16.83;;
10232;SDS011;5161;48.174;11.756;2023-04-21T09:33:24;18.83;;;16.17;;
10232;SDS011;5161;48.174;11.756;2023-04-21T09:35:49;19.63;;;16.60;;
10232;SDS011;5161;48.174;11.756;2023-04-21T09:38:16;26.27;;;18.73;;
10232;SDS011;5161;48.174;11.756;2023-04-21T09:40:46;25.70;;;19.57;;
10232;SDS011;5161;48.174;11.756;2023-04-21T09:43:24;19.47;;;16.87;;
10232;SDS011;5161;48.174;11.756;2023-04-21T09:45:50;17.33;;;15.53;;
10232;SDS011;5161;48.174;11.756;2023-04-21T09:48:17;21.80;;;16.80;;
10232;SDS011;5161;48.174;11.756;2023-04-21T09:50:45;19.20;;;16.43;;
10232;SDS011;5161;48.174;11.756;2023-04-21T09:53:13;17.87;;;15.27;;
10232;SDS011;5161;48.174;11.756;2023-04-21T09:55:41;18.40;;;16.20;;
10232;SDS011;5161;48.174;11.756;2023-04-21T09:58:08;18.70;;;15.83;;
10232;SDS011;5161;48.174;11.756;2023-04-21T10:00:36;16.33;;;14.30;;
10232;SDS011;5161;48.174;11.756;2023-04-21T10:03:04;16.13;;;14.43;;
10232;SDS011;5161;48.174;11.756;2023-04-21T10:05:34;18.10;;;14.83;;
10232;SDS011;5161;48.174;11.756;2023-04-21T10:08:00;20.00;;;15.70;;
10232;SDS011;5161;48.174;11.756;2023-04-21T10:10:29;16.47;;;14.67;;
10232;SDS011;5161;48.174;11.756;2023-04-21T10:13:00;18.43;;;15.90;;
10232;SDS011;5161;48.174;11.756;2023-04-21T10:15:30;16.47;;;14.63;;
10232;SDS011;5161;48.174;11.756;2023-04-21T10:20:53;16.20;;;14.47;;
10232;SDS011;5161;48.174;11.756;2023-04-21T10:26:02;19.57;;;15.30;;
10232;SDS011;5161;48.174;11.756;2023-04-21T10:28:46;16.53;;;14.10;;
10232;SDS011;5161;48.174;11.756;2023-04-21T10:37:06;15.97;;;14.20;;
10232;SDS011;5161;48.174;11.756;2023-04-21T10:47:43;17.03;;;13.20;;
10232;SDS011;5161;48.174;11.756;2023-04-21T10:50:38;15.53;;;13.50;;
10232;SDS011;5161;48.174;11.756;2023-04-21T10:53:16;14.07;;;12.67;;
10232;SDS011;5161;48.174;11.756;2023-04-21T10:55:47;15.07;;;13.50;;
10232;SDS011;5161;48.174;11.756;2023-04-21T10:58:14;15.90;;;14.20;;
10232;SDS011;5161;48.174;11.756;2023-04-21T11:00:54;15.93;;;13.50;;
10232;SDS011;5161;48.174;11.756;2023-04-21T11:03:32;12.17;;;10.87;;
10232;SDS011;5161;48.174;11.756;2023-04-21T11:06:21;12.53;;;11.23;;
10232;SDS011;5161;48.174;11.756;2023-04-21T11:08:59;13.50;;;11.40;;
10232;SDS011;5161;48.174;11.756;2023-04-21T11:11:36;14.63;;;11.80;;
10232;SDS011;5161;48.174;11.756;2023-04-21T11:14:06;13.73;;;12.33;;
10232;SDS011;5161;48.174;11.756;2023-04-21T11:16:41;13.83;;;10.90;;
10232;SDS011;5161;48.174;11.756;2023-04-21T11:19:28;13.83;;;8.57;;
10232;SDS011;5161;48.174;11.756;2023-04-21T11:21:58;10.00;;;9.00;;
10232;SDS011;5161;48.174;11.756;2023-04-21T11:24:29;9.97;;;8.50;;
10232;SDS011;5161;48.174;11.756;2023-04-21T11:27:06;9.70;;;8.70;;
10232;SDS011;5161;48.174;11.756;2023-04-21T11:29:40;10.13;;;9.13;;
10232;SDS011;5161;48.174;11.756;2023-04-21T11:32:08;10.70;;;9.30;;
10232;SDS011;5161;48.174;11.756;2023-04-21T11:34:36;10.47;;;9.47;;
10232;SDS011;5161;48.174;11.756;2023-04-21T11:37:09;10.67;;;9.67;;
10232;SDS011;5161;48.174;11.756;2023-04-21T11:39:41;10.47;;;9.47;;
10232;SDS011;5161;48.174;11.756;2023-04-21T11:42:10;9.50;;;8.57;;
10232;SDS011;5161;48.174;11.756;2023-04-21T11:47:26;10.57;;;9.43;;
10232;SDS011;5161;48.174;11.756;2023-04-21T11:50:05;8.70;;;7.90;;
10232;SDS011;5161;48.174;11.756;2023-04-21T11:52:35;8.70;;;7.90;;
10232;SDS011;5161;48.174;11.756;2023-04-21T11:55:10;7.23;;;6.63;;
10232;SDS011;5161;48.174;11.756;2023-04-21T11:57:56;4.90;;;4.40;;
10232;SDS011;5161;48.174;11.756;2023-04-21T12:00:28;4.93;;;4.53;;
10232;SDS011;5161;48.174;11.756;2023-04-21T12:03:11;5.40;;;4.80;;
10232;SDS011;5161;48.174;11.756;2023-04-21T12:05:40;6.73;;;6.13;;
10232;SDS011;5161;48.174;11.756;2023-04-21T12:08:11;6.60;;;6.00;;
10232;SDS011;5161;48.174;11.756;2023-04-21T12:10:47;6.47;;;5.97;;
10232;SDS011;5161;48.174;11.756;2023-04-21T12:13:25;6.70;;;6.20;;
10232;SDS011;5161;48.174;11.756;2023-04-21T12:15:54;7.37;;;6.57;;
10232;SDS011;5161;48.174;11.756;2023-04-21T12:18:30;7.43;;;6.60;;
10232;SDS011;5161;48.174;11.756;2023-04-21T12:20:56;6.60;;;6.07;;
10232;SDS011;5161;48.174;11.756;2023-04-21T12:23:31;6.63;;;6.03;;
10232;SDS011;5161;48.174;11.756;2023-04-21T12:26:06;6.30;;;5.80;;
10232;SDS011;5161;48.174;11.756;2023-04-21T12:28:31;6.90;;;5.70;;
10232;SDS011;5161;48.174;11.756;2023-04-21T12:31:03;6.33;;;5.67;;
10232;SDS011;5161;48.174;11.756;2023-04-21T12:33:33;5.90;;;5.40;;
10232;SDS011;5161;48.174;11.756;2023-04-21T12:36:08;6.10;;;5.60;;
10232;SDS011;5161;48.174;11.756;2023-04-21T12:38:39;6.00;;;5.30;;
10232;SDS011;5161;48.174;11.756;2023-04-21T12:41:05;5.57;;;5.17;;
10232;SDS011;5161;48.174;11.756;2023-04-21T12:43:34;5.50;;;5.10;;
10232;SDS011;5161;48.174;11.756;2023-04-21T12:45:59;4.63;;;4.33;;
10232;SDS011;5161;48.174;11.756;2023-04-21T12:48:30;4.87;;;4.47;;
10232;SDS011;5161;48.174;11.756;2023-04-21T12:51:08;5.23;;;4.73;;
10232;SDS011;5161;48.174;11.756;2023-04-21T12:53:36;5.60;;;5.20;;
10232;SDS011;5161;48.174;11.756;2023-04-21T12:56:11;4.90;;;4.53;;
10232;SDS011;5161;48.174;11.756;2023-04-21T12:58:45;5.17;;;4.43;;
10232;SDS011;5161;48.174;11.756;2023-04-21T13:01:21;5.33;;;4.67;;
10232;SDS011;5161;48.174;11.756;2023-04-21T13:04:03;5.27;;;4.10;;
10232;SDS011;5161;48.174;11.756;2023-04-21T13:09:40;4.83;;;4.33;;
10232;SDS011;5161;48.174;11.756;2023-04-21T13:12:08;4.10;;;3.90;;
10232;SDS011;5161;48.174;11.756;2023-04-21T13:14:38;4.53;;;4.20;;
10232;SDS011;5161;48.174;11.756;2023-04-21T13:17:24;4.67;;;4.23;;
10232;SDS011;5161;48.174;11.756;2023-04-21T13:19:52;4.40;;;4.10;;
10232;SDS011;5161;48.174;11.756;2023-04-21T13:22:40;4.70;;;4.40;;
10232;SDS011;5161;48.174;11.756;2023-04-21T13:25:08;5.67;;;5.17;;
10232;SDS011;5161;48.174;11.756;2023-04-21T13:27:39;4.37;;;4.10;;
10232;SDS011;5161;48.174;11.756;2023-04-21T13:30:18;6.07;;;4.00;;
10232;SDS011;5161;48.174;11.756;2023-04-21T13:32:44;4.20;;;3.90;;
10232;SDS011;5161;48.174;11.756;2023-04-21T13:35:17;3.70;;;3.50;;
10232;SDS011;5161;48.174;11.756;2023-04-21T13:37:49;5.07;;;3.90;;
10232;SDS011;5161;48.174;11.756;2023-04-21T13:40:27;5.00;;;4.60;;
10232;SDS011;5161;48.174;11.756;2023-04-21T13:43:03;4.33;;;4.03;;
10232;SDS011;5161;48.174;11.756;2023-04-21T13:45:40;4.20;;;3.90;;
10232;SDS011;5161;48.174;11.756;2023-04-21T13:48:14;4.10;;;3.80;;
10232;SDS011;5161;48.174;11.756;2023-04-21T13:51:08;4.30;;;3.90;;
10232;SDS011;5161;48.174;11.756;2023-04-21T13:53:43;4.40;;;4.10;;
10232;SDS011;5161;48.174;11.756;2023-04-21T13:56:32;4.20;;;3.90;;
10232;SDS011;5161;48.174;11.756;2023-04-21T13:59:03;5.33;;;4.10;;
10232;SDS011;5161;48.174;11.756;2023-04-21T14:01:33;4.10;;;3.80;;
10232;SDS011;5161;48.174;11.756;2023-04-21T14:04:26;4.00;;;3.80;;
10232;SDS011;5161;48.174;11.756;2023-04-21T14:07:02;4.10;;;3.80;;
10232;SDS011;5161;48.174;11.756;2023-04-21T14:09:38;3.93;;;3.60;;
10232;SDS011;5161;48.174;11.756;2023-04-21T14:12:09;5.33;;;4.37;;
10232;SDS011;5161;48.174;11.756;2023-04-21T14:14:39;4.43;;;4.13;;
10232;SDS011;5161;48.174;11.756;2023-04-21T14:17:05;4.00;;;3.70;;
10232;SDS011;5161;48.174;11.756;2023-04-21T14:19:35;3.60;;;3.40;;
10232;SDS011;5161;48.174;11.756;2023-04-21T14:22:01;4.43;;;4.10;;
10232;SDS011;5161;48.174;11.756;2023-04-21T14:24:30;3.90;;;3.70;;
10232;SDS011;5161;48.174;11.756;2023-04-21T14:26:59;4.30;;;4.00;;
10232;SDS011;5161;48.174;11.756;2023-04-21T14:29:33;4.20;;;4.00;;
10232;SDS011;5161;48.174;11.756;2023-04-21T14:32:04;3.90;;;3.70;;
10232;SDS011;5161;48.174;11.756;2023-04-21T14:34:40;4.33;;;4.03;;
10232;SDS011;5161;48.174;11.756;2023-04-21T14:37:14;3.77;;;3.57;;
10232;SDS011;5161;48.174;11.756;2023-04-21T14:39:49;4.27;;;4.00;;
10232;SDS011;5161;48.174;11.756;2023-04-21T14:42:20;3.87;;;3.57;;
10232;SDS011;5161;48.174;11.756;2023-04-21T14:44:57;4.33;;;3.87;;
10232;SDS011;5161;48.174;11.756;2023-04-21T14:47:22;3.87;;;3.53;;
10232;SDS011;5161;48.174;11.756;2023-04-21T14:49:51;3.60;;;3.40;;
10232;SDS011;5161;48.174;11.756;2023-04-21T14:55:17;3.67;;;3.37;;
10232;SDS011;5161;48.174;11.756;2023-04-21T14:57:51;3.53;;;3.20;;
10232;SDS011;5161;48.174;11.756;2023-04-21T15:00:25;3.50;;;3.30;;
10232;SDS011;5161;48.174;11.756;2023-04-21T15:02:56;3.97;;;3.63;;
10232;SDS011;5161;48.174;11.756;2023-04-21T15:05:30;4.37;;;3.77;;
10232;SDS011;5161;48.174;11.756;2023-04-21T15:08:04;4.23;;;3.70;;
10232;SDS011;5161;48.174;11.756;2023-04-21T15:10:47;4.10;;;3.27;;
10232;SDS011;5161;48.174;11.756;2023-04-21T15:13:18;3.50;;;3.30;;
10232;SDS011;5161;48.174;11.756;2023-04-21T15:16:02;3.90;;;3.50;;